Time;durP1;ratioP1;P1;durP2;ratioP2;P2;SDS_P1;SDS_P2;PMS_P1;PMS_P2;Temp;Humidity;BMP_temperature;BMP_pressure;BME280_temperature;BME280_humidity;BME280_pressure;Samples;Min_cycle;Max_cycle;Signal;HPM_P1;HPM_P2
2022/11/14 00:01:49;;;;;;;86.60;42.20;;;;;;;8.65;71.47;100184.05;226619;1234;139826;-63
2022/11/14 00:07:11;;;;;;;82.90;40.90;;;;;;;8.61;71.68;100183.84;227016;1249;139671;-64
2022/11/14 00:12:33;;;;;;;74.60;37.00;;;;;;;8.59;71.94;100183.73;227706;1238;138426;-64
2022/11/14 00:17:54;;;;;;;64.90;32.10;;;;;;;8.57;71.82;100184.14;226938;1238;139358;-64
2022/11/14 00:23:17;;;;;;;51.70;28.00;;;;;;;8.60;71.59;100183.35;227082;1241;139564;-64
2022/11/14 00:28:38;;;;;;;53.00;28.00;;;;;;;8.62;71.69;100174.25;226830;1239;138715;-65
2022/11/14 00:34:00;;;;;;;50.40;27.70;;;;;;;8.63;71.90;100178.10;226946;1238;139550;-65
2022/11/14 00:39:22;;;;;;;47.10;25.90;;;;;;;8.59;71.68;100170.12;227082;1234;139924;-65
2022/11/14 00:44:44;;;;;;;48.50;25.90;;;;;;;8.55;71.62;100164.42;226798;1241;140096;-65
2022/11/14 00:50:06;;;;;;;45.00;24.80;;;;;;;8.52;71.67;100162.92;227689;1231;139419;-65
2022/11/14 00:55:28;;;;;;;42.90;22.80;;;;;;;8.50;71.82;100161.25;227108;1241;139071;-65
2022/11/14 01:00:50;;;;;;;44.40;22.80;;;;;;;8.49;71.70;100159.13;226996;1234;139326;-64
2022/11/14 01:06:14;;;;;;;42.10;22.70;;;;;;;8.54;71.67;100156.30;226845;1249;139118;-64
2022/11/14 01:11:37;;;;;;;38.50;22.60;;;;;;;8.53;71.36;100150.32;227087;1249;139811;-64
2022/11/14 01:16:58;;;;;;;38.00;20.80;;;;;;;8.54;71.59;100149.77;227806;1241;138824;-64
2022/11/14 01:22:20;;;;;;;36.20;20.20;;;;;;;8.53;71.58;100149.46;227610;1231;138685;-65
2022/11/14 01:27:42;;;;;;;30.60;18.30;;;;;;;8.46;71.37;100154.83;226546;1243;139396;-63
2022/11/14 01:33:04;;;;;;;31.30;17.80;;;;;;;8.40;71.48;100150.45;227715;1226;139401;-64
2022/11/14 01:38:26;;;;;;;31.30;17.00;;;;;;;8.36;71.47;100148.44;226588;1249;138883;-64
2022/11/14 01:43:48;;;;;;;30.80;17.20;;;;;;;8.36;71.61;100143.52;226837;1249;140257;-63
2022/11/14 01:49:36;;;;;;;34.10;18.10;;;;;;;8.39;71.53;100136.15;226752;1242;140002;-63
2022/11/14 01:55:00;;;;;;;33.20;18.00;;;;;;;8.42;71.58;100127.58;226335;1242;138978;-63
2022/11/14 02:00:22;;;;;;;29.00;16.80;;;;;;;8.39;71.66;100126.95;226311;1251;138254;-63
2022/11/14 02:05:46;;;;;;;29.60;16.20;;;;;;;8.39;71.70;100126.61;226323;1238;138743;-63
2022/11/14 02:11:10;;;;;;;27.60;16.40;;;;;;;8.38;71.88;100122.92;227715;1234;139801;-63
2022/11/14 02:16:33;;;;;;;34.10;18.40;;;;;;;8.34;72.00;100118.64;226708;1238;139123;-63
2022/11/14 02:21:54;;;;;;;26.80;15.10;;;;;;;8.29;71.88;100117.91;227743;1227;139242;-63
2022/11/14 02:27:16;;;;;;;27.10;14.90;;;;;;;8.31;71.81;100116.42;226668;1249;139438;-65
2022/11/14 02:32:38;;;;;;;25.20;13.90;;;;;;;8.38;71.83;100120.79;226425;1239;139739;-65
2022/11/14 02:38:19;;;;;;;22.40;13.20;;;;;;;8.43;71.67;100110.02;226730;1238;139117;-65
2022/11/14 02:43:41;;;;;;;23.90;13.30;;;;;;;8.42;71.43;100102.25;226489;1251;138505;-65
2022/11/14 02:49:02;;;;;;;23.80;13.50;;;;;;;8.40;71.54;100091.91;226314;1248;138785;-64
2022/11/14 02:54:24;;;;;;;22.70;13.50;;;;;;;8.39;71.42;100091.79;227339;1231;138924;-64
2022/11/14 02:59:45;;;;;;;25.40;14.50;;;;;;;8.34;71.62;100093.70;226321;1251;138559;-63
2022/11/14 03:05:07;;;;;;;25.70;14.60;;;;;;;8.32;71.91;100095.70;226486;1236;138674;-63
2022/11/14 03:10:29;;;;;;;23.70;13.90;;;;;;;8.29;71.78;100093.18;226637;1238;140047;-63
2022/11/14 03:15:50;;;;;;;24.70;12.60;;;;;;;8.30;72.00;100088.69;226408;1244;139379;-64
2022/11/14 03:21:17;;;;;;;20.50;12.60;;;;;;;8.32;72.20;100084.04;226416;1243;138523;-64
2022/11/14 03:26:38;;;;;;;;;;;;;;;8.30;72.09;100079.52;227544;1231;138728;-63
2022/11/14 03:32:00;;;;;;;20.10;11.80;;;;;;;8.31;72.28;100075.04;226408;1240;124844;-63
2022/11/14 03:37:21;;;;;;;20.10;12.30;;;;;;;8.31;72.15;100078.95;226528;1236;139133;-61
2022/11/14 03:42:43;;;;;;;17.60;11.20;;;;;;;8.26;72.39;100076.09;226727;1227;138881;-62
2022/11/14 03:48:05;;;;;;;19.90;11.90;;;;;;;8.31;72.31;100074.34;226392;1243;140526;-65
2022/11/14 03:53:27;;;;;;;22.50;12.60;;;;;;;8.40;72.48;100074.22;227401;1230;139565;-64
2022/11/14 03:58:49;;;;;;;155.70;103.70;;;;;;;8.50;72.40;100070.70;227764;1234;139105;-64
2022/11/14 04:04:11;;;;;;;30.70;18.30;;;;;;;8.54;72.26;100067.35;226468;1250;140170;-64
2022/11/14 04:09:33;;;;;;;30.30;14.70;;;;;;;8.48;72.19;100072.18;227576;1241;139676;-64
2022/11/14 04:14:55;;;;;;;262.10;191.80;;;;;;;8.41;72.60;100062.89;226491;1250;139681;-65
2022/11/14 04:20:17;;;;;;;32.40;18.30;;;;;;;8.45;72.77;100055.46;226689;1249;139967;-64
2022/11/14 04:25:38;;;;;;;32.70;17.40;;;;;;;8.48;72.32;100046.16;227591;1242;139795;-65
2022/11/14 04:31:00;;;;;;;33.50;17.40;;;;;;;8.46;72.05;100046.60;227616;1231;138761;-65
2022/11/14 04:36:22;;;;;;;36.60;19.60;;;;;;;8.37;72.34;100048.67;226504;1245;138652;-65
2022/11/14 04:41:43;;;;;;;25.30;15.00;;;;;;;8.36;72.51;100041.44;226339;1249;139447;-63
2022/11/14 04:47:05;;;;;;;31.20;16.30;;;;;;;8.37;72.54;100032.24;226466;1243;139735;-63
2022/11/14 04:52:26;;;;;;;44.30;26.50;;;;;;;8.36;72.64;100032.11;226553;1248;139160;-63
2022/11/14 04:57:56;;;;;;;33.90;19.80;;;;;;;8.40;72.78;100041.70;226533;1250;139824;-65
2022/11/14 05:03:18;;;;;;;30.30;18.10;;;;;;;8.39;72.49;100041.55;226486;1249;140909;-66
2022/11/14 05:08:39;;;;;;;36.70;20.10;;;;;;;8.43;72.12;100037.88;226232;1238;138892;-66
2022/11/14 05:14:01;;;;;;;39.10;19.40;;;;;;;8.27;72.23;100030.98;226481;1241;139062;-66
2022/11/14 05:19:23;;;;;;;33.40;18.30;;;;;;;8.33;72.15;100034.52;227531;1230;138968;-68
2022/11/14 05:24:44;;;;;;;32.00;18.30;;;;;;;8.33;72.04;100037.67;226274;1238;138625;-67
2022/11/14 05:30:07;;;;;;;26.10;14.50;;;;;;;8.21;71.93;100026.42;226475;1238;138681;-69
2022/11/14 05:35:29;;;;;;;21.30;13.40;;;;;;;8.27;72.38;100020.75;226495;1245;139807;-62
2022/11/14 05:40:50;;;;;;;28.10;15.60;;;;;;;8.30;72.36;100023.10;226437;1239;138903;-64
2022/11/14 05:46:14;;;;;;;30.00;17.80;;;;;;;8.29;72.41;100022.77;226454;1242;138772;-63
2022/11/14 05:51:35;;;;;;;26.50;17.00;;;;;;;8.23;72.37;100024.05;226407;1241;138568;-63
2022/11/14 05:56:57;;;;;;;24.60;15.10;;;;;;;8.17;72.43;100019.70;227652;1241;138728;-64
2022/11/14 06:02:18;;;;;;;28.00;17.20;;;;;;;8.14;72.56;100024.76;226431;1245;139287;-63
2022/11/14 06:07:40;;;;;;;24.90;13.10;;;;;;;8.09;72.49;100021.39;226358;1242;138992;-66
2022/11/14 06:13:02;;;;;;;24.80;13.50;;;;;;;8.05;72.36;100038.16;226625;1249;140552;-66
2022/11/14 06:18:24;;;;;;;23.10;11.70;;;;;;;8.11;72.44;100042.73;226531;1244;139259;-65
2022/11/14 06:23:47;;;;;;;17.90;11.60;;;;;;;8.23;72.38;100039.82;226437;1238;138625;-65
2022/11/14 06:29:09;;;;;;;20.50;11.60;;;;;;;8.20;72.32;100038.84;226661;1234;138929;-65
2022/11/14 06:34:31;;;;;;;21.30;12.20;;;;;;;8.12;72.19;100042.70;226612;1250;139079;-63
2022/11/14 06:39:53;;;;;;;29.30;17.20;;;;;;;7.98;72.32;100052.19;226529;1240;138549;-63
2022/11/14 06:45:14;;;;;;;27.40;15.20;;;;;;;7.92;72.62;100045.34;226583;1249;138721;-63
2022/11/14 06:50:36;;;;;;;27.10;14.10;;;;;;;7.95;72.76;100040.79;227458;1235;139449;-66
2022/11/14 06:56:00;;;;;;;25.80;14.60;;;;;;;8.12;73.26;100039.67;226385;1240;139653;-64
2022/11/14 07:01:27;;;;;;;23.20;11.80;;;;;;;8.21;72.28;100037.21;226497;1248;139011;-64
2022/11/14 07:06:48;;;;;;;24.40;14.50;;;;;;;8.13;72.48;100040.15;227820;1233;139276;-66
2022/11/14 07:12:10;;;;;;;28.30;16.20;;;;;;;8.11;72.34;100026.45;226513;1240;138665;-65
2022/11/14 07:17:34;;;;;;;31.90;17.20;;;;;;;8.12;72.45;100014.59;226478;1234;138577;-66
2022/11/14 07:22:56;;;;;;;29.50;16.40;;;;;;;8.11;72.61;100009.33;226547;1243;138821;-66
2022/11/14 07:28:18;;;;;;;18.60;11.30;;;;;;;8.11;72.61;100010.75;226476;1237;139909;-63
2022/11/14 07:33:41;;;;;;;17.20;11.70;;;;;;;8.15;72.41;100013.77;226492;1245;139150;-63
2022/11/14 07:39:03;;;;;;;17.80;11.50;;;;;;;8.24;72.37;100011.13;226590;1249;139615;-63
2022/11/14 07:44:24;;;;;;;25.50;11.90;;;;;;;8.21;71.94;100011.95;226491;1238;139436;-63
2022/11/14 07:49:45;;;;;;;19.40;11.30;;;;;;;8.14;72.18;100013.79;226452;1238;138869;-63
2022/11/14 07:55:07;;;;;;;21.60;11.70;;;;;;;8.11;72.29;100024.52;226478;1249;139301;-64
2022/11/14 08:00:29;;;;;;;21.90;11.70;;;;;;;8.10;72.59;100021.73;226453;1244;140226;-65
2022/11/14 08:05:51;;;;;;;19.50;11.60;;;;;;;8.12;72.63;100024.66;226396;1235;139001;-64
2022/11/14 08:11:12;;;;;;;15.20;10.30;;;;;;;8.16;72.75;100018.66;227722;1242;139889;-64
2022/11/14 08:16:54;;;;;;;21.30;12.10;;;;;;;8.23;72.52;100010.83;226630;1238;138725;-63
2022/11/14 08:22:16;;;;;;;21.50;13.20;;;;;;;8.23;72.35;100002.86;226474;1242;138866;-64
2022/11/14 08:27:37;;;;;;;23.00;15.00;;;;;;;8.24;72.48;99995.20;226428;1243;139034;-63
2022/11/14 08:33:04;;;;;;;45.90;23.00;;;;;;;8.32;72.44;99987.86;226479;1244;138538;-63
2022/11/14 08:38:25;;;;;;;36.10;19.60;;;;;;;8.31;71.85;99983.64;226660;1239;139470;-63
2022/11/14 08:43:47;;;;;;;30.90;18.10;;;;;;;8.26;71.94;99976.91;226642;1247;139099;-63
2022/11/14 08:49:08;;;;;;;26.70;17.20;;;;;;;8.30;72.16;99974.66;227515;1230;139366;-64
2022/11/14 08:54:30;;;;;;;30.90;18.40;;;;;;;8.36;72.49;99970.23;226462;1238;138669;-64
2022/11/14 08:59:51;;;;;;;39.70;22.20;;;;;;;8.41;72.09;99971.98;226383;1243;139240;-63
2022/11/14 09:05:13;;;;;;;41.50;22.70;;;;;;;8.41;72.00;99969.32;226474;1240;138358;-63
2022/11/14 09:10:36;;;;;;;36.10;21.20;;;;;;;8.41;72.05;99967.57;227548;1238;138352;-63
2022/11/14 09:15:57;;;;;;;24.10;16.10;;;;;;;8.42;72.01;99968.23;226306;1248;139304;-62
2022/11/14 09:21:19;;;;;;;17.40;10.80;;;;;;;8.40;71.85;99971.87;226495;1244;138515;-63
2022/11/14 09:26:40;;;;;;;23.60;15.60;;;;;;;8.41;71.85;99975.35;226478;1240;140365;-61
2022/11/14 09:32:02;;;;;;;29.20;13.20;;;;;;;8.48;71.45;99965.52;226423;1249;139060;-64
2022/11/14 09:37:24;;;;;;;21.60;11.00;;;;;;;8.49;71.37;99961.41;226325;1238;138924;-63
2022/11/14 09:43:12;;;;;;;144.90;85.70;;;;;;;8.47;71.52;99955.29;226402;1237;140136;-64
2022/11/14 09:48:33;;;;;;;19.20;13.80;;;;;;;8.49;71.68;99950.80;226183;1243;139872;-64
2022/11/14 09:54:06;;;;;;;15.80;10.40;;;;;;;8.45;71.57;99949.36;226335;1237;138510;-64
2022/11/14 09:59:28;;;;;;;17.00;11.20;;;;;;;8.40;71.50;99949.77;226608;1240;138491;-63
2022/11/14 10:05:01;;;;;;;18.40;11.10;;;;;;;8.40;71.35;99957.18;226496;1246;138619;-64
2022/11/14 10:10:50;;;;;;;69.90;42.90;;;;;;;8.47;71.41;99948.06;226381;1244;139627;-65
2022/11/14 10:16:21;;;;;;;19.80;13.10;;;;;;;8.55;70.67;99941.05;226374;1245;138996;-64
2022/11/14 10:22:11;;;;;;;16.60;11.10;;;;;;;8.51;71.08;99933.40;226427;1249;139201;-64
2022/11/14 10:27:41;;;;;;;19.30;11.70;;;;;;;8.57;70.98;99935.30;226405;1244;139958;-64
2022/11/14 10:33:15;;;;;;;16.10;10.80;;;;;;;8.61;70.60;99924.36;227547;1241;138748;-63
2022/11/14 10:38:51;;;;;;;17.50;11.20;;;;;;;8.51;70.41;99916.25;226471;1240;138887;-66
2022/11/14 10:44:25;;;;;;;15.80;10.90;;;;;;;8.48;70.86;99905.04;226394;1241;139177;-67
2022/11/14 10:49:54;;;;;;;15.80;11.30;;;;;;;8.53;70.80;99900.59;227406;1242;138885;-66
2022/11/14 10:55:17;;;;;;;16.50;11.70;;;;;;;8.53;70.66;99895.29;226298;1251;139369;-65
2022/11/14 11:00:39;;;;;;;18.10;12.60;;;;;;;8.46;70.60;99895.24;226320;1246;138608;-67
2022/11/14 11:06:01;;;;;;;20.10;12.70;;;;;;;8.42;71.18;99893.09;227664;1234;138382;-68
2022/11/14 11:11:29;;;;;;;22.30;13.00;;;;;;;8.43;71.33;99883.34;226254;1242;139362;-67
2022/11/14 11:17:18;;;;;;;17.50;13.00;;;;;;;8.41;71.27;99882.84;227473;1230;139454;-68
2022/11/14 11:22:41;;;;;;;21.80;12.50;;;;;;;8.40;71.63;99873.88;226490;1244;138965;-68
2022/11/14 11:28:20;;;;;;;18.10;12.90;;;;;;;8.46;71.94;99864.97;227482;1233;139560;-68
2022/11/14 11:33:42;;;;;;;21.80;13.80;;;;;;;8.57;71.66;99866.85;226375;1251;140136;-68
2022/11/14 11:39:04;;;;;;;23.90;14.30;;;;;;;8.66;71.78;99862.57;226471;1244;138894;-68
2022/11/14 11:44:38;;;;;;;24.90;15.10;;;;;;;8.74;71.86;99857.48;227502;1234;138506;-68
2022/11/14 11:50:01;;;;;;;24.40;15.50;;;;;;;8.83;71.75;99852.14;226394;1250;247177;-68
2022/11/14 11:55:35;;;;;;;23.90;14.50;;;;;;;8.87;71.92;99843.85;226510;1242;138960;-68
2022/11/14 12:00:57;;;;;;;23.20;14.60;;;;;;;8.99;71.55;99841.02;227691;1230;138777;-68
2022/11/14 12:06:26;;;;;;;24.80;16.00;;;;;;;9.04;71.49;99839.60;226578;1238;139074;-68
2022/11/14 12:11:54;;;;;;;27.20;16.90;;;;;;;9.05;71.63;99839.75;226515;1240;138693;-68
2022/11/14 12:17:44;;;;;;;24.30;15.20;;;;;;;9.07;71.42;99839.29;226387;1238;139107;-68
2022/11/14 12:23:22;;;;;;;26.70;16.70;;;;;;;9.03;71.57;99830.98;227577;1228;139086;-68
2022/11/14 12:29:29;;;;;;;29.50;16.90;;;;;;;9.00;71.64;99828.78;226320;1241;138740;-68
2022/11/14 12:34:51;;;;;;;25.70;16.40;;;;;;;8.98;71.81;99820.71;226510;1238;139917;-68
2022/11/14 12:40:25;;;;;;;28.90;17.50;;;;;;;9.02;71.76;99811.19;226472;1252;139285;-68
2022/11/14 12:45:47;;;;;;;27.60;16.80;;;;;;;9.10;72.06;99806.95;226371;1238;139041;-68
2022/11/14 12:51:24;;;;;;;26.70;16.30;;;;;;;9.19;71.83;99799.97;227514;1231;138446;-68
2022/11/14 12:56:57;;;;;;;27.60;18.50;;;;;;;9.26;71.67;99797.90;226429;1243;139229;-68
2022/11/14 13:02:49;;;;;;;28.20;18.00;;;;;;;9.36;71.27;99786.46;226421;1255;139906;-68
2022/11/14 13:08:26;;;;;;;25.00;16.70;;;;;;;9.30;71.48;99780.02;226293;1255;138704;-67
2022/11/14 13:25:26;;;;;;;24.80;15.90;;;;;;;9.27;71.64;99775.23;227643;1243;139498;-67
2022/11/14 13:31:15;;;;;;;25.30;15.80;;;;;;;9.28;71.32;99767.92;226338;1248;139377;-68
2022/11/14 13:37:00;;;;;;;25.90;15.90;;;;;;;9.29;71.30;99761.29;226555;1253;139104;-68
2022/11/14 13:42:40;;;;;;;26.30;15.50;;;;;;;9.29;71.26;99756.16;226600;1237;139484;-68
2022/11/14 13:48:26;;;;;;;29.60;18.40;;;;;;;9.27;71.31;99755.20;227691;1248;138721;-68
2022/11/14 13:53:47;;;;;;;26.40;17.30;;;;;;;9.25;71.50;99746.77;226643;1235;139148;-68
2022/11/14 13:59:25;;;;;;;28.60;17.50;;;;;;;9.20;71.18;99744.18;227661;1236;140169;-67
2022/11/14 14:04:53;;;;;;;31.20;19.10;;;;;;;9.20;71.41;99739.73;226403;1252;139382;-68
2022/11/14 14:10:33;;;;;;;36.20;20.50;;;;;;;9.25;71.32;99739.70;226434;1238;139103;-69
2022/11/14 14:16:28;;;;;;;33.80;19.90;;;;;;;9.27;71.23;99730.21;227709;1247;140862;-70
2022/11/14 14:22:04;;;;;;;33.00;20.30;;;;;;;9.21;71.52;99723.04;226375;1237;139289;-67
2022/11/14 14:27:31;;;;;;;34.50;21.10;;;;;;;9.20;71.85;99719.91;226320;1255;141417;-66
2022/11/14 14:33:13;;;;;;;35.50;20.70;;;;;;;9.18;71.60;99715.23;226339;1237;139161;-66
2022/11/14 14:38:35;;;;;;;39.20;20.00;;;;;;;9.14;71.33;99706.55;226509;1255;139612;-66
2022/11/14 14:43:58;;;;;;;164.80;98.10;;;;;;;9.12;71.76;99702.38;226589;1241;139948;-66
2022/11/14 14:49:35;;;;;;;44.40;22.80;;;;;;;9.26;72.06;99696.99;226587;1237;139855;-66
2022/11/14 14:54:57;;;;;;;41.50;22.80;;;;;;;9.31;71.67;99698.38;226668;1241;140430;-66
2022/11/14 15:00:28;;;;;;;42.50;23.20;;;;;;;9.35;71.30;99693.18;226578;1247;139132;-65
2022/11/14 15:06:02;;;;;;;40.70;20.60;;;;;;;9.30;71.41;99692.38;226762;1244;139984;-69
2022/11/14 15:11:25;;;;;;;38.10;21.50;;;;;;;9.26;71.29;99688.67;226820;1240;140393;-68
2022/11/14 15:16:54;;;;;;;36.20;22.20;;;;;;;9.20;71.61;99686.42;226646;1238;138972;-66
2022/11/14 15:22:18;;;;;;;36.50;20.00;;;;;;;9.22;71.09;99684.03;226681;1251;139730;-66
2022/11/14 15:27:49;;;;;;;36.90;19.60;;;;;;;9.30;71.46;99684.23;226594;1255;139905;-67
2022/11/14 15:33:27;;;;;;;34.40;20.80;;;;;;;9.30;71.08;99681.58;226765;1241;139064;-67
2022/11/14 15:39:04;;;;;;;32.50;20.60;;;;;;;9.24;71.05;99678.80;226800;1234;138498;-67
2022/11/14 15:44:31;;;;;;;32.30;20.20;;;;;;;9.14;71.01;99683.18;226962;1240;138718;-67
2022/11/14 15:50:03;;;;;;;30.10;20.50;;;;;;;9.13;71.34;99681.64;227672;1226;138143;-68
2022/11/14 15:55:25;;;;;;;31.20;20.20;;;;;;;9.07;71.00;99680.15;226999;1238;139473;-66
2022/11/14 16:00:49;;;;;;;30.80;20.70;;;;;;;8.98;71.12;99681.29;227777;1247;138752;-67
2022/11/14 16:06:11;;;;;;;34.90;22.20;;;;;;;8.98;71.54;99683.39;226972;1239;138820;-69
2022/11/14 16:11:33;;;;;;;36.20;23.40;;;;;;;9.03;71.57;99681.04;227126;1236;138965;-68
2022/11/14 16:16:55;;;;;;;36.40;24.10;;;;;;;9.03;71.43;99677.83;226899;1250;139023;-68
2022/11/14 16:22:17;;;;;;;41.20;23.70;;;;;;;9.03;71.66;99675.21;226562;1242;140083;-67
2022/11/14 16:27:38;;;;;;;43.10;26.90;;;;;;;9.05;71.96;99669.98;226633;1241;138726;-68
2022/11/14 16:33:00;;;;;;;43.60;24.90;;;;;;;9.05;71.70;99672.27;227793;1234;138286;-67
2022/11/14 16:38:22;;;;;;;38.50;24.60;;;;;;;9.00;71.67;99674.80;226981;1245;138492;-67
2022/11/14 16:43:44;;;;;;;42.80;25.20;;;;;;;8.97;71.74;99671.01;227030;1248;140969;-67
2022/11/14 16:49:05;;;;;;;41.40;25.40;;;;;;;9.03;71.70;99669.35;227046;1243;138896;-68
2022/11/14 16:54:27;;;;;;;45.50;27.70;;;;;;;9.07;71.60;99669.18;227037;1241;138925;-67
2022/11/14 16:59:50;;;;;;;41.10;25.10;;;;;;;9.14;71.48;99670.62;227110;1239;138402;-67
2022/11/14 17:05:12;;;;;;;41.90;24.70;;;;;;;8.99;71.60;99671.66;227867;1240;139115;-66
2022/11/14 17:10:39;;;;;;;49.00;27.60;;;;;;;9.02;71.87;99665.16;226989;1234;139571;-65
2022/11/14 17:16:03;;;;;;;45.40;25.90;;;;;;;9.04;71.79;99657.81;227721;1231;139563;-65
2022/11/14 17:21:25;;;;;;;38.60;25.20;;;;;;;9.11;71.86;99657.48;226777;1234;139085;-64
2022/11/14 17:26:47;;;;;;;40.00;24.90;;;;;;;9.14;71.56;99660.70;226957;1234;139085;-65
2022/11/14 17:32:09;;;;;;;48.10;30.00;;;;;;;9.07;71.23;99654.48;227006;1249;138587;-64
2022/11/14 17:37:30;;;;;;;50.70;31.60;;;;;;;9.05;71.26;99651.77;226986;1238;139251;-64
2022/11/14 17:42:52;;;;;;;52.80;28.30;;;;;;;9.00;71.37;99647.88;226823;1244;139108;-64
2022/11/14 17:48:14;;;;;;;46.10;26.60;;;;;;;8.91;71.50;99640.52;227033;1249;138609;-65
2022/11/14 17:53:36;;;;;;;39.40;24.50;;;;;;;8.90;71.98;99640.74;227171;1234;139025;-65
2022/11/14 17:58:57;;;;;;;40.80;25.90;;;;;;;8.95;71.53;99642.81;226401;1233;138965;-65
2022/11/14 18:04:22;;;;;;;37.30;24.50;;;;;;;8.97;71.63;99638.98;226469;1234;138671;-64
2022/11/14 18:09:43;;;;;;;39.10;24.90;;;;;;;8.95;71.68;99633.27;227007;1249;139518;-65
2022/11/14 18:15:05;;;;;;;39.80;25.70;;;;;;;8.91;71.75;99629.55;226983;1249;139104;-65
2022/11/14 18:20:27;;;;;;;46.70;27.60;;;;;;;8.87;71.43;99620.55;226940;1237;138992;-65
2022/11/14 18:25:49;;;;;;;41.50;26.40;;;;;;;8.85;71.82;99615.30;226972;1249;139813;-64
2022/11/14 18:31:12;;;;;;;42.10;26.60;;;;;;;8.83;71.78;99611.70;226958;1238;138830;-64
2022/11/14 18:36:33;;;;;;;46.40;28.10;;;;;;;8.84;72.09;99609.70;226925;1249;140724;-64
2022/11/14 18:41:56;;;;;;;51.60;30.20;;;;;;;8.88;71.99;99607.58;226811;1249;139280;-64
2022/11/14 18:47:18;;;;;;;54.00;31.10;;;;;;;9.04;72.06;99601.71;227902;1227;138574;-65
2022/11/14 18:52:40;;;;;;;49.20;31.00;;;;;;;9.04;71.65;99597.82;226614;1234;139292;-65
2022/11/14 18:58:01;;;;;;;47.90;30.00;;;;;;;9.03;71.74;99595.92;227543;1233;139651;-66
2022/11/14 19:03:23;;;;;;;57.50;36.10;;;;;;;9.02;71.42;99593.14;226679;1241;138758;-66
2022/11/14 19:08:45;;;;;;;59.50;36.20;;;;;;;9.00;71.79;99596.39;226737;1234;139762;-67
2022/11/14 19:14:07;;;;;;;63.60;38.60;;;;;;;9.03;71.59;99595.35;226713;1249;140209;-66
2022/11/14 19:19:28;;;;;;;64.00;37.40;;;;;;;9.10;71.47;99586.71;226939;1242;139332;-66
2022/11/14 19:24:50;;;;;;;74.00;43.30;;;;;;;8.91;71.43;99584.77;226272;1251;138930;-66
2022/11/14 19:30:13;;;;;;;54.50;33.20;;;;;;;8.88;71.71;99572.37;226506;1239;139781;-67
2022/11/14 19:35:38;;;;;;;51.70;31.40;;;;;;;8.84;72.12;99574.83;226384;1249;138933;-67
2022/11/14 19:41:20;;;;;;;51.40;29.20;;;;;;;8.79;71.98;99574.02;226206;1249;138800;-67
2022/11/14 19:46:41;;;;;;;50.70;29.90;;;;;;;8.73;71.90;99571.64;226433;1249;139646;-66
2022/11/14 19:52:08;;;;;;;523.70;353.40;;;;;;;8.74;72.06;99571.75;226266;1245;139540;-68
2022/11/14 19:57:30;;;;;;;49.80;30.80;;;;;;;8.86;72.44;99574.42;226190;1235;139371;-67
2022/11/14 20:02:51;;;;;;;45.60;27.80;;;;;;;8.81;71.72;99570.39;226319;1250;139195;-68
2022/11/14 20:08:13;;;;;;;46.50;28.80;;;;;;;8.76;72.00;99560.15;226362;1238;138843;-65
2022/11/14 20:13:38;;;;;;;188.50;106.80;;;;;;;8.72;72.09;99553.11;226511;1243;139317;-64
2022/11/14 20:19:00;;;;;;;51.40;30.40;;;;;;;8.73;72.17;99551.14;226238;1239;139636;-63
2022/11/14 20:24:23;;;;;;;116.50;68.00;;;;;;;8.68;72.38;99547.96;226264;1243;138577;-68
2022/11/14 20:29:45;;;;;;;48.90;25.60;;;;;;;8.79;72.63;99541.46;226437;1237;139624;-63
2022/11/14 20:35:07;;;;;;;41.70;25.00;;;;;;;8.86;72.06;99532.27;226319;1235;139436;-63
2022/11/14 20:40:28;;;;;;;51.80;29.80;;;;;;;8.71;71.25;99530.86;227546;1242;139178;-63
2022/11/14 20:46:04;;;;;;;51.20;28.70;;;;;;;8.58;71.73;99531.83;227598;1232;139383;-63
2022/11/14 20:51:26;;;;;;;54.60;28.20;;;;;;;8.51;72.06;99526.48;226431;1249;141870;-63
2022/11/14 20:56:48;;;;;;;61.50;35.90;;;;;;;8.41;72.09;99522.85;226447;1243;138319;-63
2022/11/14 21:02:11;;;;;;;48.40;26.50;;;;;;;8.36;72.48;99520.59;226607;1249;138390;-63
2022/11/14 21:07:33;;;;;;;43.80;24.70;;;;;;;8.39;72.32;99516.59;226576;1249;139308;-63
2022/11/14 21:18:37;;;;;;;48.20;25.70;;;;;;;8.52;72.27;99496.55;226448;1249;139242;-63
2022/11/14 21:24:01;;;;;;;45.90;24.60;;;;;;;8.45;72.03;99500.74;227699;1242;138631;-64
2022/11/14 21:29:23;;;;;;;38.60;23.30;;;;;;;8.38;72.33;99490.64;227784;1231;138941;-63
2022/11/14 21:34:45;;;;;;;43.00;23.60;;;;;;;8.30;72.53;99493.45;227713;1230;139177;-63
2022/11/14 21:40:07;;;;;;;43.00;23.40;;;;;;;8.25;72.74;99492.96;227729;1241;138544;-63
2022/11/14 21:45:28;;;;;;;44.60;23.80;;;;;;;8.26;73.12;99489.40;226749;1241;139585;-64
2022/11/14 21:50:50;;;;;;;44.50;23.80;;;;;;;8.36;72.92;99488.96;226614;1238;140398;-64
2022/11/14 21:56:27;;;;;;;59.70;25.40;;;;;;;8.35;72.89;99485.09;226486;1236;138650;-64
2022/11/14 22:07:47;;;;;;;66.90;23.70;;;;;;;8.47;72.87;99469.00;226017;1241;139391;-64
2022/11/14 22:13:09;;;;;;;43.70;23.90;;;;;;;8.38;72.50;99465.69;227678;1227;139276;-65
2022/11/14 22:18:31;;;;;;;41.40;21.60;;;;;;;8.32;72.80;99468.45;227411;1229;139161;-64
2022/11/14 22:23:53;;;;;;;47.90;21.30;;;;;;;8.26;72.77;99466.95;226506;1250;139510;-64
2022/11/14 22:29:15;;;;;;;40.50;21.80;;;;;;;8.29;73.15;99458.70;226341;1250;139588;-63
2022/11/14 22:34:37;;;;;;;42.00;20.00;;;;;;;8.33;72.74;99464.17;227673;1241;138402;-63
2022/11/14 22:39:59;;;;;;;50.10;21.00;;;;;;;8.26;72.64;99460.03;226569;1243;138361;-63
2022/11/14 22:45:21;;;;;;;32.10;18.70;;;;;;;8.23;72.84;99456.50;226429;1238;138868;-63
2022/11/14 22:50:42;;;;;;;38.40;18.70;;;;;;;8.23;72.64;99452.41;226395;1250;139377;-64
2022/11/14 22:56:06;;;;;;;32.90;18.30;;;;;;;8.15;72.84;99452.61;226542;1235;138698;-64
2022/11/14 23:01:30;;;;;;;30.70;19.20;;;;;;;8.11;72.88;99445.16;227668;1233;139836;-64
2022/11/14 23:06:52;;;;;;;38.40;20.60;;;;;;;8.13;72.95;99442.10;226267;1244;139003;-64
2022/11/14 23:12:14;;;;;;;39.80;20.80;;;;;;;8.12;72.90;99443.21;227706;1227;138186;-61
2022/11/14 23:17:36;;;;;;;46.60;23.10;;;;;;;8.10;72.92;99440.30;226551;1234;138966;-62
2022/11/14 23:22:57;;;;;;;45.40;24.20;;;;;;;8.06;72.93;99433.77;226330;1244;139275;-64
2022/11/14 23:28:19;;;;;;;37.90;21.30;;;;;;;8.07;72.90;99419.24;226405;1235;138815;-64
2022/11/14 23:33:41;;;;;;;47.40;24.20;;;;;;;8.00;72.91;99415.98;226479;1237;138959;-62
2022/11/14 23:39:02;;;;;;;43.00;23.30;;;;;;;8.00;72.91;99413.67;227578;1227;139442;-64
2022/11/14 23:44:24;;;;;;;37.10;21.10;;;;;;;7.98;72.61;99409.73;226693;1238;139656;-63
2022/11/14 23:49:45;;;;;;;45.00;22.90;;;;;;;7.94;72.74;99399.85;226635;1249;138929;-64
2022/11/14 23:55:07;;;;;;;45.10;24.90;;;;;;;7.90;72.82;99394.20;226564;1249;138963;-64
